createdAt,value
2022-09-07T00:01:51.681Z,8.10
2022-09-07T00:04:18.375Z,9.63
2022-09-07T00:06:44.985Z,6.90
2022-09-07T00:09:11.586Z,9.77
2022-09-07T00:11:38.090Z,8.80
2022-09-07T00:14:05.467Z,9.38
2022-09-07T00:16:32.215Z,10.95
2022-09-07T00:19:01.451Z,9.68
2022-09-07T00:21:28.460Z,10.93
2022-09-07T00:23:55.123Z,9.27
2022-09-07T00:26:27.808Z,8.10
2022-09-07T00:28:58.951Z,9.05
2022-09-07T00:31:26.479Z,9.85
2022-09-07T00:33:54.348Z,9.10
2022-09-07T00:36:22.399Z,9.30
2022-09-07T00:38:49.714Z,9.82
2022-09-07T00:41:17.962Z,7.40
2022-09-07T00:43:50.756Z,9.02
2022-09-07T00:46:28.190Z,9.23
2022-09-07T00:49:12.987Z,10.00
2022-09-07T00:51:48.141Z,7.93
2022-09-07T00:54:23.266Z,8.00
2022-09-07T00:56:52.766Z,8.40
2022-09-07T00:59:25.216Z,8.25
2022-09-07T01:01:51.880Z,9.95
2022-09-07T01:04:19.424Z,7.90
2022-09-07T01:06:46.208Z,7.18
2022-09-07T01:09:15.768Z,6.75
2022-09-07T01:11:50.859Z,8.02
2022-09-07T01:14:24.518Z,7.85
2022-09-07T01:17:01.772Z,6.32
2022-09-07T01:19:58.885Z,8.05
2022-09-07T01:22:37.497Z,9.88
2022-09-07T01:25:44.490Z,7.50
2022-09-07T01:28:21.335Z,7.00
2022-09-07T01:31:01.535Z,8.30
2022-09-07T01:36:37.761Z,7.85
2022-09-07T01:39:05.811Z,6.80
2022-09-07T01:41:43.335Z,7.63
2022-09-07T01:44:22.092Z,7.53
2022-09-07T01:46:57.663Z,7.60
2022-09-07T01:49:29.702Z,5.65
2022-09-07T01:52:02.208Z,5.57
2022-09-07T01:54:31.979Z,5.75
2022-09-07T01:57:04.967Z,7.10
2022-09-07T01:59:43.252Z,7.13
2022-09-07T02:02:17.499Z,6.97
2022-09-07T02:04:58.763Z,6.55
2022-09-07T02:07:29.958Z,7.00
2022-09-07T02:10:11.614Z,9.45
2022-09-07T02:12:59.755Z,5.85
2022-09-07T02:15:42.950Z,8.90
2022-09-07T02:18:11.667Z,9.18
2022-09-07T02:20:40.012Z,6.70
2022-09-07T02:23:11.709Z,7.88
2022-09-07T02:25:42.282Z,8.05
2022-09-07T02:28:12.548Z,8.50
2022-09-07T02:30:39.550Z,6.63
2022-09-07T02:33:06.225Z,7.15
2022-09-07T02:35:33.794Z,5.75
2022-09-07T02:38:04.756Z,7.00
2022-09-07T02:40:32.122Z,7.68
2022-09-07T02:43:05.597Z,6.85
2022-09-07T02:45:51.371Z,7.40
2022-09-07T02:48:29.943Z,5.95
2022-09-07T02:51:10.068Z,5.78
2022-09-07T02:53:52.379Z,8.55
2022-09-07T02:56:46.192Z,6.30
2022-09-07T02:59:26.315Z,6.05
2022-09-07T03:04:29.928Z,5.72
2022-09-07T03:07:06.367Z,5.70
2022-09-07T03:09:39.898Z,6.32
2022-09-07T03:12:07.766Z,6.70
2022-09-07T03:14:36.101Z,6.55
2022-09-07T03:17:03.118Z,6.28
2022-09-07T03:19:29.597Z,5.78
2022-09-07T03:21:56.111Z,5.65
2022-09-07T03:24:22.631Z,5.88
2022-09-07T03:26:50.609Z,5.80
2022-09-07T03:31:43.895Z,8.30
2022-09-07T03:34:10.879Z,7.50
2022-09-07T03:36:37.657Z,7.07
2022-09-07T03:39:05.821Z,8.13
2022-09-07T03:41:32.499Z,6.88
2022-09-07T03:44:06.893Z,5.63
2022-09-07T03:46:34.305Z,5.93
2022-09-07T03:49:00.913Z,5.70
2022-09-07T03:51:27.457Z,7.53
2022-09-07T03:53:54.516Z,8.23
2022-09-07T03:56:23.382Z,7.18
2022-09-07T03:58:51.421Z,7.30
2022-09-07T04:03:47.099Z,6.47
2022-09-07T04:06:14.705Z,6.78
2022-09-07T04:08:42.816Z,7.30
2022-09-07T04:11:13.767Z,6.47
2022-09-07T04:13:41.538Z,6.30
2022-09-07T04:16:21.444Z,6.55
2022-09-07T04:18:50.260Z,6.10
2022-09-07T04:21:18.093Z,7.30
2022-09-07T04:23:45.549Z,5.88
2022-09-07T04:26:19.063Z,8.50
2022-09-07T04:28:45.975Z,7.75
2022-09-07T04:31:13.777Z,7.03
2022-09-07T04:33:40.323Z,8.07
2022-09-07T04:36:07.120Z,5.60
2022-09-07T04:38:33.615Z,6.97
2022-09-07T04:41:06.742Z,5.63
2022-09-07T04:43:33.165Z,6.50
2022-09-07T04:46:04.843Z,7.20
2022-09-07T04:48:31.651Z,5.95
2022-09-07T04:51:09.796Z,5.72
2022-09-07T04:53:37.831Z,8.43
2022-09-07T04:58:31.359Z,8.35
2022-09-07T05:01:05.767Z,8.13
2022-09-07T05:03:35.486Z,6.90
2022-09-07T05:06:02.766Z,6.60
2022-09-07T05:08:29.947Z,6.85
2022-09-07T05:10:59.503Z,7.35
2022-09-07T05:13:25.981Z,6.18
2022-09-07T05:15:53.559Z,6.78
2022-09-07T05:18:20.184Z,6.70
2022-09-07T05:20:46.717Z,8.50
2022-09-07T05:23:13.167Z,8.88
2022-09-07T05:25:46.795Z,6.57
2022-09-07T05:28:18.625Z,6.72
2022-09-07T05:36:20.573Z,13.00
2022-09-07T05:38:47.386Z,7.22
2022-09-07T05:41:16.328Z,8.13
2022-09-07T05:46:29.759Z,6.57
2022-09-07T05:48:56.514Z,8.23
2022-09-07T05:51:23.517Z,8.73
2022-09-07T05:53:50.651Z,7.88
2022-09-07T05:56:17.125Z,7.13
2022-09-07T05:58:48.647Z,10.55
2022-09-07T06:01:15.964Z,9.30
2022-09-07T06:03:42.688Z,9.43
2022-09-07T06:06:17.277Z,7.68
2022-09-07T06:08:49.518Z,10.18
2022-09-07T06:11:19.082Z,10.02
2022-09-07T06:13:45.508Z,10.20
2022-09-07T06:16:14.113Z,11.88
2022-09-07T06:18:43.819Z,9.45
2022-09-07T06:21:28.419Z,11.68
2022-09-07T06:23:54.847Z,8.75
2022-09-07T06:26:21.355Z,11.05
2022-09-07T06:28:52.875Z,9.75
2022-09-07T06:31:23.304Z,10.93
2022-09-07T06:33:50.821Z,9.32
2022-09-07T06:36:22.918Z,11.07
2022-09-07T06:38:50.893Z,11.23
2022-09-07T06:44:06.789Z,9.10
2022-09-07T06:49:19.864Z,11.95
2022-09-07T06:51:46.369Z,10.40
2022-09-07T06:56:59.388Z,10.45
2022-09-07T06:59:25.853Z,11.10
2022-09-07T07:01:52.301Z,12.00
2022-09-07T07:04:18.734Z,12.82
2022-09-07T07:06:47.179Z,15.20
2022-09-07T07:09:14.124Z,13.18
2022-09-07T07:11:40.618Z,14.23
2022-09-07T07:14:07.128Z,16.02
2022-09-07T07:16:33.687Z,15.15
2022-09-07T07:19:00.300Z,13.00
2022-09-07T07:21:28.982Z,12.50
2022-09-07T07:24:04.970Z,13.55
2022-09-07T07:26:34.646Z,15.07
2022-09-07T07:29:02.771Z,12.23
2022-09-07T07:31:32.606Z,16.38
2022-09-07T07:34:18.035Z,17.98
2022-09-07T07:36:44.566Z,13.10
2022-09-07T07:42:00.239Z,20.10
2022-09-07T07:44:29.792Z,13.52
2022-09-07T07:46:56.256Z,16.52
2022-09-07T07:49:22.927Z,14.43
2022-09-07T07:54:38.692Z,15.85
2022-09-07T07:57:06.059Z,14.50
2022-09-07T07:59:32.707Z,15.35
2022-09-07T08:02:04.398Z,16.00
2022-09-07T08:04:33.108Z,14.98
2022-09-07T08:06:59.598Z,16.55
2022-09-07T08:09:26.127Z,14.98
2022-09-07T08:11:52.742Z,14.88
2022-09-07T08:14:19.262Z,15.63
2022-09-07T08:16:46.276Z,16.50
2022-09-07T08:19:13.018Z,16.27
2022-09-07T08:21:39.551Z,15.38
2022-09-07T08:24:06.114Z,13.60
2022-09-07T08:26:32.750Z,16.58
2022-09-07T08:28:59.250Z,16.70
2022-09-07T08:31:25.755Z,15.77
2022-09-07T08:33:52.204Z,16.58
2022-09-07T08:36:22.065Z,16.23
2022-09-07T08:38:48.718Z,18.52
2022-09-07T08:41:33.955Z,17.60
2022-09-07T08:44:06.415Z,16.80
2022-09-07T08:46:40.162Z,18.92
2022-09-07T08:49:16.248Z,19.13
2022-09-07T08:51:49.542Z,16.08
2022-09-07T08:54:17.517Z,16.58
2022-09-07T08:59:46.462Z,17.50
2022-09-07T09:02:34.897Z,19.67
2022-09-07T09:05:20.133Z,18.80
2022-09-07T09:07:56.727Z,16.98
2022-09-07T09:10:44.196Z,16.45
2022-09-07T09:13:31.175Z,17.35
2022-09-07T09:16:08.197Z,15.70
2022-09-07T09:18:59.728Z,17.63
2022-09-07T09:21:27.147Z,16.40
2022-09-07T09:24:00.400Z,16.67
2022-09-07T09:26:29.441Z,15.95
2022-09-07T09:28:57.424Z,17.80
2022-09-07T09:31:28.289Z,18.52
2022-09-07T09:34:17.750Z,15.57
2022-09-07T09:36:55.835Z,17.83
2022-09-07T09:39:27.761Z,15.60
2022-09-07T09:41:58.296Z,16.35
2022-09-07T09:44:31.248Z,16.33
2022-09-07T09:49:45.244Z,18.08
2022-09-07T09:52:29.773Z,15.13
2022-09-07T09:55:07.199Z,16.48
2022-09-07T10:03:59.511Z,12.68
2022-09-07T10:06:28.782Z,16.30
2022-09-07T10:08:58.011Z,15.55
2022-09-07T10:14:35.189Z,13.57
2022-09-07T10:17:10.103Z,14.50
2022-09-07T10:19:39.416Z,14.48
2022-09-07T10:22:29.735Z,14.07
2022-09-07T10:24:56.254Z,11.52
2022-09-07T10:27:37.991Z,11.43
2022-09-07T10:30:14.799Z,13.13
2022-09-07T10:33:06.582Z,13.02
2022-09-07T10:35:50.801Z,11.65
2022-09-07T10:38:21.019Z,11.20
2022-09-07T10:40:51.336Z,9.50
2022-09-07T10:43:31.611Z,10.40
2022-09-07T10:50:21.814Z,9.07
2022-09-07T10:52:51.215Z,6.53
2022-09-07T10:55:28.757Z,7.75
2022-09-07T10:57:58.293Z,6.40
2022-09-07T11:00:25.820Z,7.45
2022-09-07T11:03:27.148Z,8.55
2022-09-07T11:06:08.375Z,6.78
2022-09-07T11:14:24.516Z,7.45
2022-09-07T11:17:01.424Z,6.40
2022-09-07T11:19:43.953Z,6.35
2022-09-07T11:22:19.382Z,8.00
2022-09-07T11:28:02.446Z,6.15
2022-09-07T11:30:37.040Z,7.63
2022-09-07T11:33:15.323Z,7.03
2022-09-07T11:36:11.290Z,5.85
2022-09-07T11:39:00.959Z,7.55
2022-09-07T11:41:30.779Z,7.68
2022-09-07T11:44:13.523Z,5.53
2022-09-07T11:46:53.440Z,6.32
2022-09-07T11:49:26.602Z,6.72
2022-09-07T11:52:18.199Z,10.27
2022-09-07T11:54:48.391Z,8.27
2022-09-07T11:57:14.801Z,7.45
2022-09-07T11:59:56.464Z,7.18
2022-09-07T12:02:58.340Z,7.15
2022-09-07T12:06:02.052Z,6.63
2022-09-07T12:11:23.185Z,7.43
2022-09-07T12:14:14.612Z,8.18
2022-09-07T12:17:00.535Z,7.15
2022-09-07T12:21:55.916Z,7.38
2022-09-07T12:24:37.624Z,6.75
2022-09-07T12:27:26.348Z,8.65
2022-09-07T12:29:58.537Z,6.68
2022-09-07T12:32:55.017Z,9.95
2022-09-07T12:35:28.589Z,7.70
2022-09-07T12:38:05.999Z,8.45
2022-09-07T12:40:33.234Z,6.43
2022-09-07T12:43:33.820Z,7.90
2022-09-07T12:46:01.665Z,7.75
2022-09-07T12:48:46.562Z,7.07
2022-09-07T12:51:13.230Z,6.45
2022-09-07T12:53:58.547Z,10.15
2022-09-07T13:00:03.494Z,7.53
2022-09-07T13:02:51.111Z,8.15
2022-09-07T13:09:22.138Z,7.43
2022-09-07T13:11:50.905Z,5.70
2022-09-07T13:14:21.691Z,6.05
2022-09-07T13:19:51.309Z,8.20
2022-09-07T13:22:29.973Z,6.57
2022-09-07T13:24:59.718Z,5.63
2022-09-07T13:27:43.498Z,5.05
2022-09-07T13:30:16.653Z,6.70
2022-09-07T13:35:31.941Z,4.93
2022-09-07T13:38:03.445Z,4.85
2022-09-07T13:40:34.278Z,6.45
2022-09-07T13:43:03.893Z,4.88
2022-09-07T13:45:55.467Z,6.35
2022-09-07T13:48:27.947Z,4.82
2022-09-07T13:51:10.520Z,5.63
2022-09-07T13:53:49.137Z,6.20
2022-09-07T13:56:18.898Z,7.15
2022-09-07T13:58:51.881Z,5.55
2022-09-07T14:01:21.101Z,3.38
2022-09-07T14:03:52.058Z,5.63
2022-09-07T14:06:21.547Z,4.60
2022-09-07T14:08:53.897Z,5.50
2022-09-07T14:11:42.640Z,4.07
2022-09-07T14:14:20.668Z,5.20
2022-09-07T14:16:53.106Z,4.80
2022-09-07T14:19:24.231Z,4.95
2022-09-07T14:21:59.432Z,4.90
2022-09-07T14:24:30.989Z,4.18
2022-09-07T14:26:58.113Z,4.68
2022-09-07T14:29:31.302Z,3.42
2022-09-07T14:32:00.379Z,5.93
2022-09-07T14:34:31.413Z,4.43
2022-09-07T14:37:02.200Z,3.72
2022-09-07T14:39:29.968Z,3.67
2022-09-07T14:41:58.920Z,4.07
2022-09-07T14:44:34.846Z,3.80
2022-09-07T14:47:20.873Z,5.00
2022-09-07T14:49:56.776Z,6.32
2022-09-07T14:52:35.772Z,4.50
2022-09-07T14:55:27.453Z,3.88
2022-09-07T14:58:15.778Z,4.80
2022-09-07T15:00:43.865Z,3.40
2022-09-07T15:03:51.568Z,6.05
2022-09-07T15:09:35.892Z,5.45
2022-09-07T15:12:12.487Z,3.28
2022-09-07T15:14:38.966Z,3.90
2022-09-07T15:19:52.029Z,5.35
2022-09-07T15:22:18.852Z,6.60
2022-09-07T15:24:49.040Z,3.85
2022-09-07T15:27:28.678Z,5.82
2022-09-07T15:29:55.683Z,4.75
2022-09-07T15:32:22.185Z,6.80
2022-09-07T15:34:48.830Z,6.35
2022-09-07T15:40:02.577Z,4.88
2022-09-07T15:45:16.243Z,4.18
2022-09-07T15:47:52.149Z,3.72
2022-09-07T15:50:23.080Z,5.50
2022-09-07T15:52:50.066Z,4.25
2022-09-07T15:55:17.363Z,4.80
2022-09-07T15:57:48.817Z,5.03
2022-09-07T16:00:16.040Z,6.13
2022-09-07T16:05:31.359Z,4.88
2022-09-07T16:10:44.854Z,5.65
2022-09-07T16:13:16.665Z,3.80
2022-09-07T16:15:45.803Z,5.10
2022-09-07T16:18:16.753Z,4.40
2022-09-07T16:20:44.086Z,4.63
2022-09-07T16:23:13.974Z,3.72
2022-09-07T16:25:43.064Z,6.20
2022-09-07T16:28:09.755Z,4.35
2022-09-07T16:30:39.443Z,5.35
2022-09-07T16:33:06.111Z,5.70
2022-09-07T16:35:33.008Z,5.10
2022-09-07T16:40:46.560Z,6.43
2022-09-07T16:43:13.046Z,5.13
2022-09-07T16:48:25.937Z,5.90
2022-09-07T16:51:01.723Z,6.72
2022-09-07T16:53:30.543Z,5.25
2022-09-07T16:56:04.787Z,4.55
2022-09-07T16:58:36.130Z,4.25
2022-09-07T17:01:04.294Z,6.82
2022-09-07T17:03:30.898Z,5.20
2022-09-07T17:06:00.307Z,3.17
2022-09-07T17:08:26.948Z,4.43
2022-09-07T17:11:05.930Z,5.85
2022-09-07T17:13:33.982Z,4.38
2022-09-07T17:16:05.823Z,5.40
2022-09-07T17:21:20.449Z,5.40
2022-09-07T17:23:54.353Z,4.80
2022-09-07T17:26:26.246Z,5.32
2022-09-07T17:28:55.519Z,6.30
2022-09-07T17:34:13.270Z,3.83
2022-09-07T17:39:15.284Z,6.53
2022-09-07T17:41:42.829Z,4.75
2022-09-07T17:44:09.371Z,6.47
2022-09-07T17:46:36.272Z,5.07
2022-09-07T17:49:03.788Z,5.85
2022-09-07T17:51:32.357Z,4.03
2022-09-07T17:54:09.169Z,6.07
2022-09-07T17:56:36.193Z,4.47
2022-09-07T18:01:49.419Z,4.47
2022-09-07T18:04:15.853Z,5.35
2022-09-07T18:06:42.343Z,5.15
2022-09-07T18:09:08.857Z,6.53
2022-09-07T18:11:51.085Z,6.18
2022-09-07T18:14:18.739Z,6.22
2022-09-07T18:16:47.742Z,5.45
2022-09-07T18:19:15.321Z,6.32
2022-09-07T18:21:43.759Z,5.15
2022-09-07T18:24:17.126Z,6.22
2022-09-07T18:26:49.687Z,5.43
2022-09-07T18:29:28.207Z,5.38
2022-09-07T18:31:55.884Z,4.35
2022-09-07T18:34:23.140Z,5.60
2022-09-07T18:36:49.893Z,6.28
2022-09-07T18:39:16.365Z,6.00
2022-09-07T18:41:42.920Z,8.15
2022-09-07T18:46:55.809Z,5.38
2022-09-07T18:49:22.421Z,6.18
2022-09-07T18:54:35.231Z,6.55
2022-09-07T18:57:01.594Z,5.88
2022-09-07T18:59:29.540Z,7.53
2022-09-07T19:02:00.098Z,7.47
2022-09-07T19:05:49.601Z,5.28
2022-09-07T19:07:17.030Z,6.47
2022-09-07T19:09:43.499Z,7.55
2022-09-07T19:12:10.062Z,7.25
2022-09-07T19:14:36.573Z,4.40
2022-09-07T19:17:03.174Z,5.75
2022-09-07T19:19:29.607Z,7.78
2022-09-07T19:21:57.839Z,6.50
2022-09-07T19:24:25.673Z,6.13
2022-09-07T19:26:54.704Z,7.68
2022-09-07T19:29:23.611Z,7.13
2022-09-07T19:32:06.811Z,6.97
2022-09-07T19:34:36.314Z,6.53
2022-09-07T19:37:05.797Z,8.23
2022-09-07T19:39:32.259Z,6.25
2022-09-07T19:41:59.302Z,8.48
2022-09-07T19:44:26.087Z,6.30
2022-09-07T19:46:52.539Z,9.05
2022-09-07T19:49:19.070Z,8.82
2022-09-07T19:51:45.856Z,9.75
2022-09-07T19:54:13.187Z,7.97
2022-09-07T19:56:42.394Z,7.90
2022-09-07T19:59:09.417Z,8.48
2022-09-07T20:01:36.484Z,8.80
2022-09-07T20:04:05.649Z,8.65
2022-09-07T20:06:33.560Z,6.55
2022-09-07T20:09:01.359Z,7.53
2022-09-07T20:11:28.667Z,8.23
2022-09-07T20:13:57.220Z,12.23
2022-09-07T20:16:24.816Z,8.07
2022-09-07T20:18:51.620Z,6.57
2022-09-07T20:21:23.759Z,6.97
2022-09-07T20:23:50.748Z,8.13
2022-09-07T20:26:19.714Z,10.60
2022-09-07T20:28:46.415Z,12.35
2022-09-07T20:31:17.655Z,9.02
2022-09-07T20:33:46.099Z,8.63
2022-09-07T20:36:14.533Z,9.50
2022-09-07T20:38:43.482Z,8.70
2022-09-07T20:41:19.675Z,6.50
2022-09-07T20:43:47.909Z,7.68
2022-09-07T20:46:14.794Z,8.75
2022-09-07T20:48:41.319Z,7.53
2022-09-07T20:51:11.540Z,7.60
2022-09-07T20:53:38.706Z,7.47
2022-09-07T20:56:10.861Z,8.38
2022-09-07T20:58:37.363Z,9.10
2022-09-07T21:01:03.950Z,8.68
2022-09-07T21:03:30.553Z,8.27
2022-09-07T21:06:05.430Z,10.18
2022-09-07T21:08:36.624Z,8.30
2022-09-07T21:11:15.438Z,11.80
2022-09-07T21:13:42.623Z,10.90
2022-09-07T21:16:14.673Z,10.10
2022-09-07T21:18:42.646Z,10.93
2022-09-07T21:21:24.693Z,10.73
2022-09-07T21:24:10.230Z,7.93
2022-09-07T21:26:36.675Z,10.52
2022-09-07T21:29:05.166Z,10.68
2022-09-07T21:31:33.648Z,9.15
2022-09-07T21:34:01.675Z,8.85
2022-09-07T21:36:29.251Z,10.73
2022-09-07T21:38:55.844Z,9.90
2022-09-07T21:41:24.551Z,10.52
2022-09-07T21:44:12.737Z,10.70
2022-09-07T21:46:39.639Z,11.23
2022-09-07T21:49:06.233Z,10.25
2022-09-07T21:51:32.614Z,7.65
2022-09-07T21:54:00.244Z,10.55
2022-09-07T21:56:31.258Z,8.23
2022-09-07T21:58:59.909Z,9.75
2022-09-07T22:01:28.141Z,7.72
2022-09-07T22:03:57.355Z,8.70
2022-09-07T22:06:24.507Z,7.63
2022-09-07T22:08:51.079Z,8.70
2022-09-07T22:11:20.810Z,10.23
2022-09-07T22:13:47.645Z,9.10
2022-09-07T22:16:15.251Z,10.15
2022-09-07T22:18:45.941Z,9.85
2022-09-07T22:21:18.509Z,12.15
2022-09-07T22:23:47.538Z,11.57
2022-09-07T22:26:16.038Z,9.75
2022-09-07T22:28:43.328Z,11.02
2022-09-07T22:31:37.755Z,11.35
2022-09-07T22:34:07.929Z,10.65
2022-09-07T22:36:37.751Z,15.88
2022-09-07T22:39:07.455Z,11.43
2022-09-07T22:41:36.775Z,13.48
2022-09-07T22:44:03.854Z,9.63
2022-09-07T22:46:34.215Z,12.45
2022-09-07T22:49:00.631Z,16.20
2022-09-07T22:51:27.564Z,10.82
2022-09-07T22:53:55.021Z,14.98
2022-09-07T22:56:26.621Z,13.80
2022-09-07T22:58:58.718Z,12.32
2022-09-07T23:01:27.486Z,14.18
2022-09-07T23:03:55.458Z,20.05
2022-09-07T23:08:52.722Z,15.82
2022-09-07T23:11:19.793Z,17.95
2022-09-07T23:13:49.477Z,15.80
2022-09-07T23:16:15.927Z,15.55
2022-09-07T23:18:42.332Z,15.93
2022-09-07T23:21:10.439Z,15.25
2022-09-07T23:23:36.994Z,14.95
2022-09-07T23:26:05.006Z,15.05
2022-09-07T23:30:58.639Z,14.68
2022-09-07T23:33:26.240Z,14.77
2022-09-07T23:36:01.252Z,21.40
2022-09-07T23:38:28.581Z,18.33
2022-09-07T23:40:56.045Z,17.00
2022-09-07T23:43:23.953Z,20.70
2022-09-07T23:45:50.774Z,16.40
2022-09-07T23:48:17.214Z,17.40
2022-09-07T23:50:45.375Z,14.45
2022-09-07T23:53:12.652Z,14.98
2022-09-07T23:55:39.849Z,14.60
2022-09-07T23:58:06.795Z,19.98
